Time;durP1;ratioP1;P1;durP2;ratioP2;P2;SDS_P1;SDS_P2;PMS_P1;PMS_P2;Temp;Humidity;BMP_temperature;BMP_pressure;BME280_temperature;BME280_humidity;BME280_pressure;Samples;Min_cycle;Max_cycle;Signal;HPM_P1;HPM_P2
2023/01/23 00:01:13;;;;;;;29.55;16.88;;;3.10;99.90;;;;;;5018743;28;20475;-87
2023/01/23 00:03:39;;;;;;;30.20;15.90;;;3.10;99.90;;;;;;5001492;28;20056;-87
2023/01/23 00:06:07;;;;;;;30.70;16.92;;;3.10;99.90;;;;;;5001681;28;20034;-88
2023/01/23 00:08:35;;;;;;;30.17;17.15;;;3.10;99.90;;;;;;5001550;28;20036;-87
2023/01/23 00:11:11;;;;;;;32.38;17.30;;;3.10;99.90;;;;;;5000457;28;20057;-89
2023/01/23 00:13:37;;;;;;;27.23;16.33;;;3.10;99.90;;;;;;5001601;28;20129;-90
2023/01/23 00:16:13;;;;;;;30.80;16.33;;;3.10;99.90;;;;;;5018052;28;20471;-91
2023/01/23 00:18:39;;;;;;;43.08;18.73;;;3.10;99.90;;;;;;5001669;28;20030;-91
2023/01/23 00:21:10;;;;;;;31.27;16.55;;;3.20;99.90;;;;;;5000917;28;20036;-91
2023/01/23 00:23:37;;;;;;;31.40;16.67;;;3.10;99.90;;;;;;5000124;28;20092;-90
2023/01/23 00:26:09;;;;;;;34.17;17.33;;;3.20;99.90;;;;;;5001326;28;20030;-91
2023/01/23 00:28:35;;;;;;;31.95;16.98;;;3.10;99.90;;;;;;5002322;28;20065;-88
2023/01/23 00:31:11;;;;;;;30.08;16.48;;;3.20;99.90;;;;;;5018470;28;20038;-88
2023/01/23 00:33:41;;;;;;;34.60;17.33;;;3.20;99.90;;;;;;5000102;28;20030;-87
2023/01/23 00:36:08;;;;;;;35.05;17.55;;;3.20;99.90;;;;;;5000962;28;20033;-91
2023/01/23 00:38:34;;;;;;;33.15;16.80;;;3.20;99.90;;;;;;5000966;28;20503;-91
2023/01/23 00:41:01;;;;;;;30.70;17.23;;;3.20;99.90;;;;;;4968341;28;20046;-91
2023/01/23 00:43:27;;;;;;;32.20;17.00;;;3.20;99.90;;;;;;4984595;28;20177;-91
2023/01/23 00:45:56;;;;;;;33.30;17.60;;;3.20;99.90;;;;;;4984756;28;20041;-90
2023/01/23 00:48:22;;;;;;;34.22;17.48;;;3.20;99.90;;;;;;5000793;28;20132;-89
2023/01/23 00:50:47;;;;;;;29.08;16.15;;;3.20;99.90;;;;;;4983714;28;20112;-91
2023/01/23 00:53:13;;;;;;;34.15;17.70;;;3.20;99.90;;;;;;4968845;28;20112;-91
2023/01/23 00:55:40;;;;;;;32.60;16.67;;;3.20;99.90;;;;;;4985002;28;20483;-91
2023/01/23 00:58:07;;;;;;;34.25;17.30;;;3.20;99.90;;;;;;5000722;28;20044;-91
2023/01/23 01:00:33;;;;;;;35.30;16.83;;;3.20;99.90;;;;;;5000466;28;20033;-90
2023/01/23 01:02:59;;;;;;;30.67;17.15;;;3.20;99.90;;;;;;5000410;28;20038;-90
2023/01/23 01:05:25;;;;;;;36.58;17.73;;;3.20;99.90;;;;;;5000696;28;20034;-89
2023/01/23 01:07:51;;;;;;;29.33;17.65;;;3.20;99.90;;;;;;4983285;28;20030;-89
2023/01/23 01:10:16;;;;;;;31.40;17.52;;;3.20;99.90;;;;;;5000482;28;20037;-89
2023/01/23 01:12:42;;;;;;;34.08;17.10;;;3.20;99.90;;;;;;5000524;28;20088;-89
2023/01/23 01:15:09;;;;;;;33.80;17.98;;;3.20;99.90;;;;;;4968288;28;20104;-89
2023/01/23 01:17:37;;;;;;;35.13;17.80;;;3.20;99.90;;;;;;4999901;28;20042;-89
2023/01/23 01:20:05;;;;;;;35.88;18.65;;;3.20;99.90;;;;;;4999781;28;20030;-89
2023/01/23 01:22:31;;;;;;;33.58;18.50;;;3.20;99.90;;;;;;5013066;28;20033;-91
2023/01/23 01:24:57;;;;;;;34.60;17.60;;;3.20;99.90;;;;;;5017995;28;20034;-91
2023/01/23 01:27:23;;;;;;;36.28;18.45;;;3.20;99.90;;;;;;5034366;28;20045;-90
2023/01/23 01:29:49;;;;;;;31.58;16.52;;;3.20;99.90;;;;;;5002492;28;20014;-91
2023/01/23 01:32:17;;;;;;;30.95;16.85;;;3.20;99.90;;;;;;5020131;28;20029;-91
2023/01/23 01:34:43;;;;;;;31.55;17.88;;;3.20;99.90;;;;;;5016148;28;20459;-89
2023/01/23 01:37:09;;;;;;;40.35;18.42;;;3.20;99.90;;;;;;4967864;28;20072;-89
2023/01/23 01:39:34;;;;;;;33.67;17.63;;;3.20;99.90;;;;;;5016070;28;20037;-89
2023/01/23 01:42:00;;;;;;;40.40;18.95;;;3.20;99.90;;;;;;4999716;28;20034;-89
2023/01/23 01:44:26;;;;;;;40.17;20.08;;;3.20;99.90;;;;;;4967347;28;20092;-89
2023/01/23 01:46:52;;;;;;;32.05;16.85;;;3.30;99.90;;;;;;5000085;28;20034;-89
2023/01/23 01:49:32;;;;;;;35.42;18.58;;;3.20;99.90;;;;;;4998690;28;20030;-89
2023/01/23 01:52:02;;;;;;;34.80;18.20;;;3.20;99.90;;;;;;4983575;28;20078;-89
2023/01/23 01:55:00;;;;;;;41.70;18.30;;;3.30;99.90;;;;;;5000016;28;20026;-88
2023/01/23 01:57:33;;;;;;;37.05;18.48;;;3.30;99.90;;;;;;5017659;28;20037;-89
2023/01/23 02:00:15;;;;;;;33.30;17.83;;;3.30;99.90;;;;;;4999502;28;20044;-89
2023/01/23 02:02:49;;;;;;;39.47;18.55;;;3.30;99.90;;;;;;4983454;28;20030;-89
2023/01/23 02:05:19;;;;;;;33.50;18.05;;;3.30;99.90;;;;;;4999576;28;20030;-89
2023/01/23 02:07:53;;;;;;;37.05;18.98;;;3.30;99.90;;;;;;5000417;28;20125;-90
2023/01/23 02:10:20;;;;;;;35.70;19.83;;;3.30;99.90;;;;;;4998789;28;20486;-91
2023/01/23 02:12:52;;;;;;;38.33;18.65;;;3.30;99.90;;;;;;4983801;28;20038;-90
2023/01/23 02:15:21;;;;;;;39.67;18.50;;;3.30;99.90;;;;;;5000310;28;20041;-90
2023/01/23 02:17:49;;;;;;;35.65;18.95;;;3.30;99.90;;;;;;4999583;28;20033;-90
2023/01/23 02:20:19;;;;;;;39.67;19.50;;;3.30;99.90;;;;;;4998799;28;20037;-91
2023/01/23 02:22:54;;;;;;;43.30;19.00;;;3.30;99.90;;;;;;4999344;28;20427;-90
2023/01/23 02:25:31;;;;;;;35.60;19.38;;;3.30;99.90;;;;;;5001375;28;20044;-91
2023/01/23 02:27:57;;;;;;;40.35;19.27;;;3.30;99.90;;;;;;4999449;28;20380;-90
2023/01/23 02:30:23;;;;;;;32.78;17.80;;;3.30;99.90;;;;;;4999350;28;20088;-90
2023/01/23 02:32:49;;;;;;;30.70;17.45;;;3.30;99.90;;;;;;5015476;28;20080;-90
2023/01/23 02:35:26;;;;;;;38.25;18.63;;;3.40;99.90;;;;;;5015724;28;20037;-90
2023/01/23 02:37:58;;;;;;;36.53;18.73;;;3.40;99.90;;;;;;4999626;28;20033;-90
2023/01/23 02:40:31;;;;;;;;;;;3.40;99.90;;;;;;4999896;28;20034;-90
2023/01/23 02:42:58;;;;;;;32.50;17.50;;;3.40;99.90;;;;;;5020482;28;19901;-90
2023/01/23 02:45:24;;;;;;;36.78;19.25;;;3.30;99.90;;;;;;5005529;28;20114;-90
2023/01/23 02:47:50;;;;;;;38.40;19.38;;;3.40;99.90;;;;;;4966154;28;20383;-87
2023/01/23 02:50:16;;;;;;;33.25;19.25;;;3.40;99.90;;;;;;4998326;28;20034;-87
2023/01/23 02:52:42;;;;;;;32.50;17.80;;;3.40;99.90;;;;;;4982222;28;20050;-87
2023/01/23 02:55:08;;;;;;;38.90;20.65;;;3.40;99.90;;;;;;4982804;28;20052;-90
2023/01/23 02:57:34;;;;;;;36.40;18.70;;;3.30;99.90;;;;;;4967678;28;20032;-87
2023/01/23 03:00:15;;;;;;;37.90;19.08;;;3.40;99.90;;;;;;4965588;28;20050;-87
2023/01/23 03:02:41;;;;;;;34.65;18.90;;;3.40;99.90;;;;;;4969629;28;20038;-88
2023/01/23 03:05:08;;;;;;;35.60;18.17;;;3.40;99.90;;;;;;4997288;28;20030;-87
2023/01/23 03:07:34;;;;;;;37.22;18.17;;;3.40;99.90;;;;;;4981476;28;20042;-87
2023/01/23 03:10:01;;;;;;;32.55;19.45;;;3.40;99.90;;;;;;4966055;28;20092;-87
2023/01/23 03:12:27;;;;;;;39.08;19.48;;;3.40;99.90;;;;;;5015632;28;20041;-89
2023/01/23 03:14:53;;;;;;;34.13;18.33;;;3.50;99.90;;;;;;4998343;28;20038;-87
2023/01/23 03:17:21;;;;;;;42.55;20.17;;;3.50;99.90;;;;;;4981959;28;20530;-87
2023/01/23 03:19:47;;;;;;;37.30;18.77;;;3.50;99.90;;;;;;4997672;28;20124;-87
2023/01/23 03:22:13;;;;;;;38.28;20.15;;;3.40;99.90;;;;;;4982159;28;20026;-88
2023/01/23 03:24:39;;;;;;;36.47;18.90;;;3.50;99.90;;;;;;5014386;28;20010;-87
2023/01/23 03:27:05;;;;;;;37.47;19.55;;;3.50;99.90;;;;;;4981685;28;20088;-87
2023/01/23 03:32:15;;;;;;;40.55;19.42;;;3.50;99.90;;;;;;4990443;28;20045;-87
2023/01/23 03:34:41;;;;;;;31.38;18.40;;;3.50;99.90;;;;;;5018557;28;20034;-87
2023/01/23 03:37:09;;;;;;;38.03;18.95;;;3.50;99.90;;;;;;5001692;28;20050;-87
2023/01/23 03:42:20;;;;;;;35.30;19.02;;;3.50;99.90;;;;;;5004661;28;20096;-86
2023/01/23 03:44:50;;;;;;;38.17;19.00;;;3.50;99.90;;;;;;4985401;28;20042;-87
2023/01/23 03:47:15;;;;;;;39.50;19.00;;;3.50;99.90;;;;;;5001804;28;20442;-87
2023/01/23 03:49:41;;;;;;;33.15;19.63;;;3.50;99.90;;;;;;4986073;28;20038;-90
2023/01/23 03:52:07;;;;;;;34.08;19.50;;;3.50;99.90;;;;;;4969294;28;20112;-91
2023/01/23 03:54:33;;;;;;;36.65;18.60;;;3.50;99.90;;;;;;5002337;28;20100;-91
2023/01/23 03:56:58;;;;;;;32.65;18.77;;;3.50;99.90;;;;;;4969493;28;20074;-90
2023/01/23 03:59:24;;;;;;;34.13;19.55;;;3.60;99.90;;;;;;5016861;28;20030;-87
2023/01/23 04:01:49;;;;;;;32.47;19.35;;;3.50;99.90;;;;;;5001420;28;20506;-87
2023/01/23 04:04:15;;;;;;;34.13;19.23;;;3.50;99.90;;;;;;4969403;28;20132;-87
2023/01/23 04:06:41;;;;;;;40.20;19.88;;;3.50;99.90;;;;;;5017897;28;20034;-88
2023/01/23 04:09:07;;;;;;;36.00;20.17;;;3.60;99.90;;;;;;5001413;28;20010;-87
2023/01/23 04:11:32;;;;;;;37.50;18.95;;;3.50;99.90;;;;;;5018846;28;20038;-87
2023/01/23 04:13:58;;;;;;;36.58;19.17;;;3.50;99.90;;;;;;4984202;28;20045;-87
2023/01/23 04:16:24;;;;;;;38.30;19.63;;;3.60;99.90;;;;;;5000939;28;20042;-90
2023/01/23 04:18:51;;;;;;;38.95;20.23;;;3.50;99.90;;;;;;5017768;28;20097;-91
2023/01/23 04:21:17;;;;;;;34.40;19.17;;;3.60;99.90;;;;;;4991488;28;20034;-90
2023/01/23 04:23:42;;;;;;;35.72;18.50;;;3.60;99.90;;;;;;5008508;28;20025;-90
2023/01/23 04:26:09;;;;;;;38.70;19.35;;;3.60;99.90;;;;;;5008669;28;20026;-89
2023/01/23 04:28:35;;;;;;;41.25;20.08;;;3.60;99.90;;;;;;4992451;28;20048;-90
2023/01/23 04:31:01;;;;;;;35.30;19.05;;;3.60;99.90;;;;;;5024710;28;20018;-91
2023/01/23 04:33:27;;;;;;;35.90;20.50;;;3.60;99.90;;;;;;5024565;28;20025;-90
2023/01/23 04:35:58;;;;;;;36.17;20.00;;;3.60;99.90;;;;;;5040733;28;20022;-90
2023/01/23 04:38:26;;;;;;;38.17;20.15;;;3.60;99.90;;;;;;5014767;28;20022;-89
2023/01/23 04:40:52;;;;;;;34.53;19.20;;;3.60;99.90;;;;;;5000295;28;20479;-89
2023/01/23 04:43:18;;;;;;;36.20;19.38;;;3.60;99.90;;;;;;5000446;28;20033;-89
2023/01/23 04:45:44;;;;;;;36.75;19.90;;;3.60;99.90;;;;;;5000527;28;20026;-89
2023/01/23 04:48:11;;;;;;;32.20;18.63;;;3.70;99.90;;;;;;4969152;28;20403;-89
2023/01/23 04:50:37;;;;;;;35.97;19.45;;;3.60;99.90;;;;;;4984554;28;20046;-90
2023/01/23 04:53:04;;;;;;;32.75;18.17;;;3.60;99.90;;;;;;5000527;28;20121;-91
2023/01/23 04:55:30;;;;;;;39.67;20.80;;;3.60;99.90;;;;;;4999887;28;20503;-90
2023/01/23 04:57:56;;;;;;;39.28;20.50;;;3.60;99.90;;;;;;5000636;28;20026;-91
2023/01/23 05:00:22;;;;;;;35.65;19.08;;;3.60;99.90;;;;;;4984048;28;20052;-91
2023/01/23 05:02:48;;;;;;;35.03;18.30;;;3.60;99.90;;;;;;4984343;28;20030;-91
2023/01/23 05:05:16;;;;;;;38.13;19.20;;;3.70;99.90;;;;;;4985588;28;20390;-89
2023/01/23 05:07:42;;;;;;;44.10;19.90;;;3.60;99.90;;;;;;5000771;28;20384;-90
2023/01/23 05:10:09;;;;;;;37.15;19.70;;;3.60;99.90;;;;;;5000770;28;20018;-89
2023/01/23 05:12:34;;;;;;;37.90;20.15;;;3.60;99.90;;;;;;5000907;28;20030;-91
2023/01/23 05:15:00;;;;;;;31.05;19.65;;;3.70;99.90;;;;;;4983539;28;20038;-91
2023/01/23 05:17:26;;;;;;;36.03;19.63;;;3.60;99.90;;;;;;4999856;28;20137;-91
2023/01/23 05:19:51;;;;;;;36.40;20.20;;;3.70;99.90;;;;;;4984037;28;20049;-90
2023/01/23 05:22:17;;;;;;;35.78;20.25;;;3.70;99.90;;;;;;5000441;28;20038;-91
2023/01/23 05:24:46;;;;;;;35.15;19.63;;;3.60;99.90;;;;;;4999933;28;20346;-88
2023/01/23 05:27:12;;;;;;;37.20;18.88;;;3.70;99.90;;;;;;4967810;28;20136;-87
2023/01/23 05:29:37;;;;;;;36.80;18.40;;;3.70;99.90;;;;;;4983869;28;20120;-87
2023/01/23 05:32:03;;;;;;;34.60;19.77;;;3.70;99.90;;;;;;5000344;28;20034;-88
2023/01/23 05:34:29;;;;;;;37.03;20.25;;;3.70;99.90;;;;;;5000052;28;20113;-88
2023/01/23 05:36:55;;;;;;;40.55;20.23;;;3.70;99.90;;;;;;5016267;28;20045;-87
2023/01/23 05:39:21;;;;;;;37.35;19.90;;;3.70;99.90;;;;;;4966883;28;20038;-88
2023/01/23 05:41:46;;;;;;;38.78;20.58;;;3.70;99.90;;;;;;4982832;28;20026;-88
2023/01/23 05:44:12;;;;;;;32.30;18.25;;;3.70;99.90;;;;;;4967342;28;20033;-91
2023/01/23 05:46:38;;;;;;;35.92;20.77;;;3.70;99.90;;;;;;4984387;28;20034;-91
2023/01/23 05:49:04;;;;;;;37.65;19.80;;;3.70;99.90;;;;;;5000107;28;20114;-91
2023/01/23 05:51:32;;;;;;;35.08;19.02;;;3.70;99.90;;;;;;5016382;28;20030;-88
2023/01/23 05:54:02;;;;;;;35.35;19.52;;;3.70;99.90;;;;;;4999604;28;20398;-88
2023/01/23 05:56:28;;;;;;;33.88;18.88;;;3.70;99.90;;;;;;4983381;28;20137;-88
2023/01/23 05:58:53;;;;;;;33.00;19.15;;;3.70;99.90;;;;;;4983388;28;20073;-88
2023/01/23 06:01:20;;;;;;;39.97;19.95;;;3.70;99.90;;;;;;5015568;28;20120;-87
2023/01/23 06:03:46;;;;;;;38.65;20.05;;;3.70;99.90;;;;;;4999150;28;20084;-88
2023/01/23 06:06:11;;;;;;;36.10;19.90;;;3.70;99.90;;;;;;4999507;28;20034;-88
2023/01/23 06:08:37;;;;;;;33.97;18.98;;;3.70;99.90;;;;;;4999255;28;20041;-88
2023/01/23 06:11:03;;;;;;;38.63;20.52;;;3.70;99.90;;;;;;4983009;28;20034;-88
2023/01/23 06:13:29;;;;;;;38.97;20.35;;;3.70;99.90;;;;;;5015396;28;20033;-88
2023/01/23 06:15:56;;;;;;;37.78;20.75;;;3.70;99.90;;;;;;4966854;28;20133;-88
2023/01/23 06:18:41;;;;;;;40.97;19.77;;;3.70;99.90;;;;;;5000520;28;20483;-91
2023/01/23 06:21:08;;;;;;;35.88;18.92;;;3.70;99.90;;;;;;5002668;28;20384;-91
2023/01/23 06:23:34;;;;;;;39.10;20.02;;;3.70;99.90;;;;;;4999252;28;20121;-92
2023/01/23 06:26:02;;;;;;;37.80;19.52;;;3.70;99.90;;;;;;4967172;28;20073;-92
2023/01/23 06:28:28;;;;;;;33.78;19.77;;;3.70;99.90;;;;;;4999653;28;20116;-91
2023/01/23 06:30:53;;;;;;;37.90;20.10;;;3.70;99.90;;;;;;5000411;28;20069;-91
2023/01/23 06:33:19;;;;;;;38.47;20.15;;;3.70;99.90;;;;;;5001372;28;20045;-91
2023/01/23 06:35:45;;;;;;;39.35;19.42;;;3.80;99.90;;;;;;5016674;28;20033;-90
2023/01/23 06:38:11;;;;;;;37.88;20.98;;;3.80;99.90;;;;;;4968145;28;20052;-90
2023/01/23 06:40:36;;;;;;;38.38;20.45;;;3.80;99.90;;;;;;4984203;28;20125;-89
2023/01/23 06:43:02;;;;;;;37.15;20.35;;;3.80;99.90;;;;;;4968010;28;20483;-89
2023/01/23 06:45:31;;;;;;;37.10;21.10;;;3.80;99.90;;;;;;4984176;28;20034;-89
2023/01/23 06:47:57;;;;;;;39.20;21.40;;;3.80;99.90;;;;;;4969136;28;20426;-89
2023/01/23 06:50:22;;;;;;;43.03;22.27;;;3.80;99.90;;;;;;4969460;28;20026;-89
2023/01/23 06:52:48;;;;;;;36.70;20.52;;;3.80;99.90;;;;;;4999176;28;20058;-88
2023/01/23 06:55:14;;;;;;;37.17;21.92;;;3.80;99.90;;;;;;5025324;28;20128;-87
2023/01/23 06:57:40;;;;;;;38.15;20.45;;;3.80;99.90;;;;;;5018067;28;20128;-87
2023/01/23 07:00:06;;;;;;;43.92;22.33;;;3.80;99.90;;;;;;4981921;28;20060;-87
2023/01/23 07:02:32;;;;;;;42.80;22.58;;;3.80;99.90;;;;;;4965651;28;20107;-88
2023/01/23 07:04:57;;;;;;;39.63;20.83;;;3.80;99.90;;;;;;4980478;28;20030;-89
2023/01/23 07:07:23;;;;;;;36.72;20.98;;;3.80;99.90;;;;;;4965358;28;20030;-92
2023/01/23 07:09:49;;;;;;;39.63;22.25;;;3.80;99.90;;;;;;4998058;28;20038;-92
2023/01/23 07:12:14;;;;;;;35.72;20.85;;;3.80;99.90;;;;;;4965932;28;20044;-91
2023/01/23 07:14:40;;;;;;;40.65;20.42;;;3.80;99.90;;;;;;4982022;28;20137;-91
2023/01/23 07:17:06;;;;;;;44.95;22.40;;;3.80;99.90;;;;;;4981865;28;20030;-91
2023/01/23 07:19:32;;;;;;;45.22;22.40;;;3.90;99.90;;;;;;4981975;28;20132;-89
2023/01/23 07:21:59;;;;;;;39.85;22.73;;;3.90;99.90;;;;;;4982064;28;20415;-88
2023/01/23 07:24:27;;;;;;;40.40;22.23;;;3.80;99.90;;;;;;5014524;28;20489;-91
2023/01/23 07:26:52;;;;;;;36.83;21.58;;;3.90;99.90;;;;;;4999224;28;20117;-91
2023/01/23 07:29:18;;;;;;;39.92;21.42;;;3.90;99.90;;;;;;4965993;28;20057;-91
2023/01/23 07:31:44;;;;;;;41.03;21.88;;;3.90;99.90;;;;;;4966707;28;20052;-91
2023/01/23 07:34:09;;;;;;;39.70;21.40;;;3.90;99.90;;;;;;4965999;28;20041;-91
2023/01/23 07:36:35;;;;;;;39.13;22.48;;;3.90;99.90;;;;;;4982625;28;20049;-91
2023/01/23 07:39:01;;;;;;;36.97;21.42;;;3.90;99.90;;;;;;4998860;28;20085;-91
2023/01/23 07:41:26;;;;;;;41.10;21.10;;;3.90;99.90;;;;;;4983661;28;20030;-91
2023/01/23 07:43:52;;;;;;;35.03;21.40;;;3.90;99.90;;;;;;4981413;28;20034;-92
2023/01/23 07:46:18;;;;;;;33.25;20.95;;;3.90;99.90;;;;;;4982800;28;20038;-91
2023/01/23 07:48:43;;;;;;;38.08;20.13;;;4.00;99.90;;;;;;5018946;28;20049;-91
2023/01/23 07:51:09;;;;;;;34.45;20.80;;;3.90;99.90;;;;;;4971081;28;20042;-91
2023/01/23 07:53:35;;;;;;;34.90;20.38;;;3.90;99.90;;;;;;4984407;28;20061;-91
2023/01/23 07:56:05;;;;;;;32.15;20.35;;;4.00;99.90;;;;;;4999502;28;20137;-91
2023/01/23 07:58:31;;;;;;;36.92;19.73;;;4.00;99.90;;;;;;4978779;28;20014;-87
2023/01/23 08:00:57;;;;;;;31.45;19.88;;;3.90;99.90;;;;;;5004829;28;20041;-87
2023/01/23 08:03:22;;;;;;;34.45;19.55;;;4.00;99.90;;;;;;4967946;28;20041;-90
2023/01/23 08:05:49;;;;;;;33.28;20.70;;;4.00;99.90;;;;;;5014316;28;20566;-91
2023/01/23 08:08:15;;;;;;;38.13;20.48;;;4.00;99.90;;;;;;4997841;28;20049;-93
2023/01/23 08:10:42;;;;;;;34.88;19.65;;;4.00;99.90;;;;;;4998499;28;20476;-92
2023/01/23 08:13:08;;;;;;;33.05;19.95;;;4.00;99.90;;;;;;4980878;28;20042;-90
2023/01/23 08:15:35;;;;;;;36.95;19.98;;;4.00;99.90;;;;;;4999101;28;20026;-89
2023/01/23 08:18:04;;;;;;;33.45;19.02;;;4.00;99.90;;;;;;5001749;28;20038;-90
2023/01/23 08:20:29;;;;;;;32.55;19.88;;;4.00;99.90;;;;;;5002259;28;20506;-89
2023/01/23 08:22:57;;;;;;;30.77;19.08;;;4.00;99.90;;;;;;5017350;28;20030;-89
2023/01/23 08:25:23;;;;;;;37.05;19.30;;;4.00;99.90;;;;;;4969811;28;20510;-90
2023/01/23 08:27:49;;;;;;;34.75;19.35;;;4.00;99.90;;;;;;5017596;28;20026;-90
2023/01/23 08:30:15;;;;;;;34.47;19.25;;;4.00;99.90;;;;;;4969439;28;20399;-91
2023/01/23 08:32:41;;;;;;;34.55;20.08;;;4.00;99.90;;;;;;4991467;28;20173;-89
2023/01/23 08:35:07;;;;;;;33.13;19.83;;;4.00;99.90;;;;;;4967397;28;20030;-90
2023/01/23 08:37:33;;;;;;;34.60;18.83;;;4.00;99.90;;;;;;4971095;28;20176;-90
2023/01/23 08:39:59;;;;;;;34.05;18.73;;;4.10;99.90;;;;;;4965950;28;20042;-91
2023/01/23 08:42:31;;;;;;;34.08;19.30;;;4.10;99.90;;;;;;4995167;28;20041;-91
2023/01/23 08:44:57;;;;;;;33.97;19.75;;;4.10;99.90;;;;;;4985570;28;20120;-90
2023/01/23 08:47:22;;;;;;;38.15;20.23;;;4.10;99.90;;;;;;4984655;28;20434;-87
2023/01/23 08:49:51;;;;;;;34.40;20.10;;;4.10;99.90;;;;;;4967412;28;20034;-90
2023/01/23 08:52:17;;;;;;;35.58;20.05;;;4.10;99.90;;;;;;5023726;28;20034;-89
2023/01/23 08:54:43;;;;;;;38.42;20.20;;;4.10;99.90;;;;;;4996816;28;20048;-88
2023/01/23 08:57:09;;;;;;;29.63;18.65;;;4.10;99.90;;;;;;4996198;28;20077;-94
2023/01/23 08:59:35;;;;;;;38.58;19.52;;;4.10;99.90;;;;;;4965432;28;20042;-94
2023/01/23 09:02:01;;;;;;;32.13;19.10;;;4.20;99.90;;;;;;4982334;28;20026;-95
2023/01/23 09:04:27;;;;;;;32.20;19.17;;;4.20;99.90;;;;;;4985295;28;20126;-92
2023/01/23 09:06:52;;;;;;;33.53;19.30;;;4.20;99.90;;;;;;4966680;28;20088;-93
2023/01/23 09:09:18;;;;;;;34.08;20.27;;;4.20;99.90;;;;;;4980855;28;20399;-91
2023/01/23 09:11:45;;;;;;;34.67;19.42;;;4.20;99.90;;;;;;4984911;28;20041;-91
2023/01/23 09:14:11;;;;;;;36.90;20.92;;;4.20;99.90;;;;;;4964996;28;20528;-91
2023/01/23 09:16:38;;;;;;;37.90;20.17;;;4.20;99.90;;;;;;4968471;28;20042;-94
2023/01/23 09:19:03;;;;;;;33.88;19.67;;;4.20;99.90;;;;;;4998799;28;20037;-93
2023/01/23 09:21:29;;;;;;;35.40;20.45;;;4.20;99.90;;;;;;5001281;28;20505;-87
2023/01/23 09:23:56;;;;;;;34.38;19.73;;;4.20;99.90;;;;;;4979214;28;20088;-88
2023/01/23 09:26:21;;;;;;;35.40;19.60;;;4.20;99.90;;;;;;5000167;28;20026;-89
2023/01/23 09:28:47;;;;;;;34.53;19.30;;;4.30;99.90;;;;;;4965948;28;20037;-90
2023/01/23 09:31:13;;;;;;;34.00;20.13;;;4.30;99.90;;;;;;5003568;28;20477;-87
2023/01/23 09:33:39;;;;;;;35.70;19.75;;;4.30;99.90;;;;;;5003085;28;20060;-88
2023/01/23 09:36:06;;;;;;;31.73;19.17;;;4.30;99.90;;;;;;4998660;28;20379;-88
2023/01/23 09:38:32;;;;;;;32.75;18.67;;;4.30;99.90;;;;;;4999987;28;20042;-87
2023/01/23 09:41:02;;;;;;;32.90;18.83;;;4.30;99.90;;;;;;4986482;28;20172;-89
2023/01/23 09:43:54;;;;;;;34.97;20.40;;;4.30;99.90;;;;;;4983109;28;20034;-85
2023/01/23 09:46:42;;;;;;;32.88;19.30;;;4.30;99.90;;;;;;4994985;28;20034;-88
2023/01/23 09:49:19;;;;;;;35.25;20.38;;;4.40;99.90;;;;;;4997615;28;20030;-88
2023/01/23 09:52:25;;;;;;;32.90;19.75;;;4.40;99.90;;;;;;5008274;28;20038;-88
2023/01/23 09:55:01;;;;;;;34.00;19.60;;;4.40;99.90;;;;;;5011873;28;20141;-92
2023/01/23 09:57:46;;;;;;;34.28;18.77;;;4.40;99.90;;;;;;5004829;28;20042;-92
2023/01/23 10:00:18;;;;;;;37.55;20.58;;;4.40;99.90;;;;;;4990118;28;20037;-94
2023/01/23 10:02:45;;;;;;;32.10;19.20;;;4.40;99.90;;;;;;4986312;28;20074;-87
2023/01/23 10:05:17;;;;;;;34.00;19.10;;;4.40;99.90;;;;;;4965585;28;20038;-87
2023/01/23 10:07:56;;;;;;;35.40;19.73;;;4.40;99.90;;;;;;4980958;28;20027;-87
2023/01/23 10:10:48;;;;;;;30.95;19.20;;;4.50;99.90;;;;;;5002188;28;20026;-87
2023/01/23 10:13:56;;;;;;;31.80;19.50;;;4.50;99.90;;;;;;5003692;28;20038;-91
2023/01/23 10:16:37;;;;;;;33.55;19.35;;;4.50;99.90;;;;;;5002702;28;20049;-92
2023/01/23 10:19:12;;;;;;;;;;;4.50;99.90;;;;;;4981248;28;20042;-92
2023/01/23 10:21:47;;;;;;;37.20;20.20;;;4.50;99.90;;;;;;4994685;28;19916;-92
2023/01/23 10:24:25;;;;;;;34.83;19.35;;;4.40;99.90;;;;;;4995859;28;20085;-92
2023/01/23 10:26:54;;;;;;;30.48;17.58;;;4.50;99.90;;;;;;4996176;28;20509;-92
2023/01/23 10:29:35;;;;;;;34.17;19.90;;;4.50;99.90;;;;;;5001434;28;20052;-94
2023/01/23 10:32:05;;;;;;;37.10;19.75;;;4.50;99.90;;;;;;5004331;28;20097;-95
2023/01/23 10:34:53;;;;;;;35.50;19.70;;;4.50;99.90;;;;;;4997340;28;20026;-94
2023/01/23 10:37:46;;;;;;;31.65;18.35;;;4.50;99.90;;;;;;5003764;28;20030;-96
2023/01/23 10:43:18;;;;;;;31.75;19.20;;;4.50;99.90;;;;;;5009315;28;20041;-96
2023/01/23 10:45:45;;;;;;;32.60;18.80;;;4.50;99.90;;;;;;4988501;28;20093;-91
2023/01/23 10:48:36;;;;;;;33.70;20.02;;;4.60;99.90;;;;;;4980921;28;20111;-94
2023/01/23 10:51:03;;;;;;;34.92;18.75;;;4.60;99.90;;;;;;4985556;28;20039;-91
2023/01/23 10:53:30;;;;;;;31.80;18.30;;;4.60;99.90;;;;;;4987137;28;20049;-91
2023/01/23 10:55:59;;;;;;;34.13;19.73;;;4.70;99.90;;;;;;4999287;28;20030;-91
2023/01/23 10:58:38;;;;;;;37.35;19.90;;;4.70;99.90;;;;;;4998634;28;20100;-95
2023/01/23 11:01:06;;;;;;;38.72;20.63;;;4.70;99.90;;;;;;5013372;28;20041;-95
2023/01/23 11:04:01;;;;;;;32.38;19.40;;;4.70;99.90;;;;;;5017600;28;20498;-95
2023/01/23 11:06:27;;;;;;;38.33;20.02;;;4.70;99.90;;;;;;4991082;28;20073;-94
2023/01/23 11:15:32;;;;;;;30.88;18.95;;;4.80;99.90;;;;;;5027378;28;20097;-94
2023/01/23 11:18:01;;;;;;;32.55;19.13;;;4.90;99.90;;;;;;5014409;28;20033;-96
2023/01/23 11:20:37;;;;;;;34.67;19.52;;;4.90;99.90;;;;;;5002547;28;20054;-92
2023/01/23 11:23:33;;;;;;;34.47;18.65;;;4.90;99.90;;;;;;5017511;28;20558;-94
2023/01/23 11:25:59;;;;;;;32.38;18.98;;;4.90;99.90;;;;;;5001984;28;20038;-91
2023/01/23 11:28:46;;;;;;;29.38;18.27;;;5.00;99.90;;;;;;5004637;28;20483;-96
2023/01/23 11:31:17;;;;;;;33.05;18.45;;;5.00;99.90;;;;;;4998700;28;20053;-92
2023/01/23 11:33:53;;;;;;;32.63;19.05;;;5.00;99.90;;;;;;5006658;28;20120;-90
2023/01/23 11:36:44;;;;;;;32.35;19.50;;;5.00;99.90;;;;;;4995711;28;20061;-91
2023/01/23 11:39:41;;;;;;;30.42;18.40;;;5.00;99.90;;;;;;4985007;28;20053;-92
2023/01/23 11:42:17;;;;;;;33.08;18.77;;;5.10;99.90;;;;;;4999247;28;20037;-93
2023/01/23 11:44:43;;;;;;;32.47;19.05;;;5.10;99.90;;;;;;4985122;28;20054;-91
2023/01/23 11:47:17;;;;;;;34.30;19.35;;;5.20;99.90;;;;;;4983945;28;20163;-91
2023/01/23 11:49:52;;;;;;;33.47;21.85;;;5.20;99.90;;;;;;4999871;28;20056;-92
2023/01/23 11:52:33;;;;;;;36.60;20.40;;;5.20;99.90;;;;;;5003878;28;20506;-95
2023/01/23 11:55:08;;;;;;;;;;;5.20;99.90;;;;;;4999176;28;20487;-94
2023/01/23 11:57:59;;;;;;;28.08;18.38;;;5.20;99.90;;;;;;4982851;28;19913;-95
2023/01/23 12:00:54;;;;;;;30.55;18.67;;;5.20;99.90;;;;;;4982437;28;20132;-95
2023/01/23 12:03:41;;;;;;;29.33;19.83;;;5.20;99.90;;;;;;4981400;28;20038;-96
2023/01/23 12:07:04;;;;;;;29.98;18.98;;;5.20;99.90;;;;;;4983150;28;20037;-95
2023/01/23 12:10:03;;;;;;;28.20;18.33;;;5.20;99.90;;;;;;4954692;28;20387;-92
2023/01/23 12:12:50;;;;;;;29.95;18.60;;;5.20;99.90;;;;;;4979034;28;20026;-91
2023/01/23 12:15:43;;;;;;;28.17;17.55;;;5.20;99.90;;;;;;4978594;28;20047;-92
2023/01/23 12:18:42;;;;;;;28.75;18.27;;;5.30;99.90;;;;;;4973810;28;20030;-93
2023/01/23 12:27:56;;;;;;;27.60;17.60;;;5.20;99.90;;;;;;4961262;29;20079;-96
2023/01/23 12:30:40;;;;;;;28.92;17.73;;;5.30;99.90;;;;;;4964066;28;20042;-94
2023/01/23 12:33:23;;;;;;;26.75;18.42;;;5.30;99.90;;;;;;4977673;28;20035;-94
2023/01/23 12:36:02;;;;;;;31.25;19.08;;;5.30;99.90;;;;;;4981854;28;20027;-94
2023/01/23 12:39:00;;;;;;;28.27;17.75;;;5.30;99.90;;;;;;4982002;28;20122;-95
2023/01/23 12:41:37;;;;;;;27.45;17.92;;;5.30;99.90;;;;;;4957821;28;20038;-93
2023/01/23 12:44:19;;;;;;;26.65;17.73;;;5.30;99.90;;;;;;4973074;28;20100;-93
2023/01/23 12:46:56;;;;;;;27.02;17.40;;;5.40;99.90;;;;;;4979538;28;20027;-93
2023/01/23 12:49:27;;;;;;;27.58;17.90;;;5.40;99.90;;;;;;4981201;28;20061;-92
2023/01/23 12:52:02;;;;;;;30.05;18.25;;;5.40;99.90;;;;;;4976315;28;20365;-92
2023/01/23 12:54:41;;;;;;;23.48;17.42;;;5.40;99.90;;;;;;4998106;28;20053;-93
2023/01/23 12:57:09;;;;;;;28.27;17.58;;;5.40;99.90;;;;;;4999453;28;20038;-93
2023/01/23 13:00:10;;;;;;;25.98;17.63;;;5.40;99.90;;;;;;5002852;28;20046;-94
2023/01/23 13:03:10;;;;;;;27.13;17.88;;;5.40;99.90;;;;;;4970057;28;20120;-95
2023/01/23 13:05:42;;;;;;;32.00;18.63;;;5.40;99.90;;;;;;4998714;28;20467;-94
2023/01/23 13:08:38;;;;;;;25.00;17.13;;;5.40;99.90;;;;;;4997951;28;20387;-95
2023/01/23 13:14:01;;;;;;;29.25;17.77;;;5.50;99.90;;;;;;5023195;28;20060;-95
2023/01/23 13:16:30;;;;;;;25.13;17.83;;;5.50;99.90;;;;;;4992512;28;20490;-94
2023/01/23 13:22:02;;;;;;;26.83;17.55;;;5.60;99.90;;;;;;5036393;28;20044;-95